createdAt,value
2018-05-02T00:02:15.144Z,5.50
2018-05-02T00:04:43.364Z,5.40
2018-05-02T00:07:10.848Z,5.40
2018-05-02T00:09:38.325Z,5.40
2018-05-02T00:12:05.772Z,5.40
2018-05-02T00:14:33.216Z,5.40
2018-05-02T00:17:00.732Z,5.30
2018-05-02T00:19:28.185Z,5.30
2018-05-02T00:21:55.665Z,5.30
2018-05-02T00:24:23.112Z,5.20
2018-05-02T00:26:50.611Z,5.30
2018-05-02T00:29:18.065Z,5.30
2018-05-02T00:31:45.512Z,5.30
2018-05-02T00:34:13.024Z,5.30
2018-05-02T00:36:40.465Z,5.30
2018-05-02T00:39:07.951Z,5.30
2018-05-02T00:41:35.434Z,5.30
2018-05-02T00:44:02.903Z,5.30
2018-05-02T00:46:30.371Z,5.30
2018-05-02T00:49:09.857Z,5.20
2018-05-02T00:51:37.417Z,5.20
2018-05-02T00:54:04.854Z,5.20
2018-05-02T00:56:32.310Z,5.20
2018-05-02T00:58:59.744Z,5.10
2018-05-02T01:01:27.980Z,5.10
2018-05-02T01:03:55.448Z,5.10
2018-05-02T01:06:22.928Z,5.10
2018-05-02T01:08:50.390Z,5.10
2018-05-02T01:11:17.938Z,5.10
2018-05-02T01:13:45.384Z,5.10
2018-05-02T01:16:13.593Z,5.00
2018-05-02T01:18:41.053Z,5.00
2018-05-02T01:21:09.265Z,4.90
2018-05-02T01:23:36.720Z,4.90
2018-05-02T01:26:04.168Z,4.90
2018-05-02T01:28:32.381Z,4.80
2018-05-02T01:30:59.884Z,4.80
2018-05-02T01:33:27.339Z,4.90
2018-05-02T01:35:54.808Z,4.80
2018-05-02T01:38:22.303Z,4.80
2018-05-02T01:40:49.800Z,4.80
2018-05-02T01:43:18.026Z,4.80
2018-05-02T01:45:45.480Z,4.70
2018-05-02T01:48:13.712Z,4.80
2018-05-02T01:50:41.158Z,4.80
2018-05-02T01:53:08.612Z,4.80
2018-05-02T01:55:36.221Z,4.80
2018-05-02T01:58:03.684Z,4.80
2018-05-02T02:00:31.135Z,4.70
2018-05-02T02:02:58.605Z,4.60
2018-05-02T02:05:26.141Z,4.60
2018-05-02T02:07:54.380Z,4.60
2018-05-02T02:10:21.863Z,4.60
2018-05-02T02:12:49.405Z,4.60
2018-05-02T02:15:16.884Z,4.60
2018-05-02T02:17:44.321Z,4.60
2018-05-02T02:20:12.557Z,4.60
2018-05-02T02:22:40.004Z,4.50
2018-05-02T02:25:07.444Z,4.60
2018-05-02T02:27:35.664Z,4.50
2018-05-02T02:30:03.169Z,4.50
2018-05-02T02:32:30.624Z,4.50
2018-05-02T02:34:58.085Z,4.40
2018-05-02T02:37:25.569Z,4.40
2018-05-02T02:39:53.022Z,4.40
2018-05-02T02:42:20.573Z,4.30
2018-05-02T02:44:48.025Z,4.20
2018-05-02T02:47:16.231Z,4.20
2018-05-02T02:49:43.695Z,4.20
2018-05-02T02:52:11.904Z,4.20
2018-05-02T02:54:39.356Z,4.10
2018-05-02T02:57:06.804Z,4.10
2018-05-02T02:59:35.008Z,4.10
2018-05-02T03:02:02.513Z,4.10
2018-05-02T03:04:29.993Z,4.10
2018-05-02T03:06:57.484Z,4.10
2018-05-02T03:09:24.930Z,4.10
2018-05-02T03:11:52.729Z,4.10
2018-05-02T03:14:20.193Z,4.20
2018-05-02T03:16:47.747Z,4.20
2018-05-02T03:19:15.379Z,4.20
2018-05-02T03:21:42.824Z,4.20
2018-05-02T03:24:11.065Z,4.20
2018-05-02T03:26:38.505Z,4.20
2018-05-02T03:29:06.016Z,4.20
2018-05-02T03:31:33.464Z,4.20
2018-05-02T03:34:00.964Z,4.20
2018-05-02T03:36:28.436Z,4.10
2018-05-02T03:38:55.913Z,4.10
2018-05-02T03:41:23.517Z,4.10
2018-05-02T03:43:51.749Z,4.10
2018-05-02T03:46:19.484Z,4.00
2018-05-02T03:48:47.784Z,4.00
2018-05-02T03:51:15.988Z,4.00
2018-05-02T03:53:43.452Z,4.00
2018-05-02T03:56:10.888Z,4.00
2018-05-02T03:58:39.116Z,3.90
2018-05-02T04:01:18.499Z,3.90
2018-05-02T04:03:57.957Z,3.90
2018-05-02T04:09:27.997Z,3.80
2018-05-02T04:11:55.477Z,3.80
2018-05-02T04:14:23.264Z,3.80
2018-05-02T04:16:50.946Z,3.80
2018-05-02T04:19:18.395Z,3.80
2018-05-02T04:21:45.848Z,3.80
2018-05-02T04:24:13.321Z,3.80
2018-05-02T04:26:40.777Z,3.80
2018-05-02T04:29:08.338Z,3.80
2018-05-02T04:32:14.528Z,3.80
2018-05-02T04:34:41.980Z,3.80
2018-05-02T04:37:10.525Z,3.80
2018-05-02T04:39:37.964Z,3.80
2018-05-02T04:42:05.400Z,3.90
2018-05-02T04:44:33.632Z,3.90
2018-05-02T04:47:01.123Z,3.90
2018-05-02T04:49:28.655Z,3.90
2018-05-02T04:51:56.101Z,3.90
2018-05-02T04:54:24.336Z,4.00
2018-05-02T04:56:51.798Z,4.00
2018-05-02T04:59:19.305Z,4.10
2018-05-02T06:45:01.426Z,10.10
2018-05-02T06:47:28.881Z,10.10
2018-05-02T06:49:56.410Z,10.50
2018-05-02T06:52:23.785Z,10.80
2018-05-02T06:54:51.260Z,11.00
2018-05-02T06:57:18.769Z,11.20
2018-05-02T06:59:46.321Z,11.50
2018-05-02T07:02:13.765Z,11.70
2018-05-02T07:04:41.235Z,11.70
2018-05-02T07:07:08.727Z,11.60
2018-05-02T07:09:36.924Z,11.80
2018-05-02T07:12:04.393Z,11.80
2018-05-02T07:14:31.902Z,12.10
2018-05-02T07:16:59.406Z,12.20
2018-05-02T07:19:26.977Z,12.10
2018-05-02T07:21:55.305Z,12.40
2018-05-02T07:24:22.777Z,12.40
2018-05-02T07:26:50.224Z,12.40
2018-05-02T07:29:17.685Z,12.70
2018-05-02T07:31:45.139Z,12.50
2018-05-02T07:34:13.360Z,12.30
2018-05-02T07:36:40.843Z,12.30
2018-05-02T07:39:08.560Z,12.30
2018-05-02T07:41:36.797Z,13.10
2018-05-02T07:44:04.351Z,13.10
2018-05-02T07:46:31.921Z,13.30
2018-05-02T07:48:59.388Z,13.30
2018-05-02T07:51:26.851Z,13.60
2018-05-02T07:53:55.067Z,14.20
2018-05-02T07:56:22.585Z,14.20
2018-05-02T07:58:50.252Z,14.40
2018-05-02T08:01:17.792Z,14.60
2018-05-02T08:03:45.256Z,14.60
2018-05-02T08:06:12.746Z,14.60
2018-05-02T08:08:40.300Z,14.70
2018-05-02T08:11:07.782Z,14.80
2018-05-02T08:13:35.257Z,14.80
2018-05-02T08:16:02.821Z,15.00
2018-05-02T08:18:30.296Z,15.50
2018-05-02T08:20:57.768Z,15.70
2018-05-02T08:23:25.304Z,15.90
2018-05-02T08:25:52.796Z,15.90
2018-05-02T08:28:20.264Z,16.20
2018-05-02T08:30:47.736Z,16.70
2018-05-02T08:33:15.209Z,16.90
2018-05-02T08:35:42.677Z,17.10
2018-05-02T08:38:10.248Z,17.40
2018-05-02T08:40:37.724Z,17.10
2018-05-02T08:43:05.202Z,17.40
2018-05-02T08:45:32.680Z,17.50
2018-05-02T08:48:00.166Z,18.10
2018-05-02T08:50:28.395Z,18.60
2018-05-02T08:52:55.856Z,18.50
2018-05-02T08:55:23.660Z,18.80
2018-05-02T08:57:51.136Z,18.70
2018-05-02T09:00:18.589Z,18.60
2018-05-02T09:02:46.052Z,18.50
2018-05-02T09:05:13.609Z,18.90
2018-05-02T09:07:41.827Z,19.40
2018-05-02T09:10:09.305Z,19.40
2018-05-02T09:12:36.785Z,19.50
2018-05-02T09:15:04.308Z,19.50
2018-05-02T09:17:31.784Z,20.10
2018-05-02T09:19:59.299Z,20.30
2018-05-02T09:22:26.754Z,20.40
2018-05-02T09:24:54.223Z,20.40
2018-05-02T09:27:21.668Z,20.10
2018-05-02T09:29:49.132Z,19.80
2018-05-02T09:32:16.593Z,19.90
2018-05-02T09:34:44.801Z,20.20
2018-05-02T09:37:12.293Z,20.20
2018-05-02T09:39:39.741Z,19.80
2018-05-02T09:42:07.212Z,19.90
2018-05-02T09:44:34.702Z,20.20
2018-05-02T09:47:02.209Z,20.30
2018-05-02T09:49:30.453Z,20.40
2018-05-02T09:51:57.982Z,20.40
2018-05-02T09:54:25.451Z,20.70
2018-05-02T09:56:52.854Z,21.20
2018-05-02T09:59:20.348Z,21.00
2018-05-02T10:01:47.788Z,20.90
2018-05-02T10:04:15.252Z,20.70
2018-05-02T10:06:42.696Z,19.90
2018-05-02T10:09:10.922Z,21.00
2018-05-02T10:11:38.474Z,20.90
2018-05-02T10:14:05.951Z,21.30
2018-05-02T10:16:33.460Z,21.70
2018-05-02T10:19:00.934Z,22.10
2018-05-02T10:21:28.379Z,22.90
2018-05-02T10:23:55.857Z,22.90
2018-05-02T10:26:23.333Z,22.30
2018-05-02T10:28:50.865Z,21.40
2018-05-02T10:31:18.305Z,20.70
2018-05-02T10:33:45.787Z,20.50
2018-05-02T10:36:13.996Z,21.50
2018-05-02T10:38:41.440Z,21.50
2018-05-02T10:41:09.684Z,22.20
2018-05-02T10:43:37.140Z,22.20
2018-05-02T10:46:04.689Z,22.30
2018-05-02T10:48:32.918Z,22.00
2018-05-02T10:51:00.400Z,22.00
2018-05-02T10:53:27.849Z,21.80
2018-05-02T10:55:55.389Z,21.80
2018-05-02T10:58:22.768Z,22.30
2018-05-02T11:00:50.328Z,22.50
2018-05-02T11:03:17.903Z,21.50
2018-05-02T11:05:45.368Z,20.80
2018-05-02T11:08:12.839Z,21.10
2018-05-02T11:10:40.277Z,21.20
2018-05-02T11:13:08.521Z,21.60
2018-05-02T11:15:36.226Z,21.60
2018-05-02T11:18:03.721Z,21.60
2018-05-02T11:20:31.264Z,21.90
2018-05-02T11:23:00.249Z,23.20
2018-05-02T11:25:27.729Z,23.20
2018-05-02T11:27:55.196Z,23.10
2018-05-02T11:30:22.734Z,23.20
2018-05-02T11:32:50.197Z,23.40
2018-05-02T11:35:18.407Z,23.90
2018-05-02T11:37:45.865Z,23.90
2018-05-02T11:40:13.319Z,23.90
2018-05-02T11:42:41.820Z,23.80
2018-05-02T11:45:09.277Z,23.80
2018-05-02T11:47:37.583Z,24.00
2018-05-02T11:50:05.066Z,24.00
2018-05-02T11:52:32.534Z,23.40
2018-05-02T11:55:00.053Z,23.60
2018-05-02T11:57:27.596Z,23.70
2018-05-02T11:59:55.060Z,23.80
2018-05-02T12:02:22.518Z,23.80
2018-05-02T12:04:49.961Z,23.80
2018-05-02T12:07:18.192Z,22.80
2018-05-02T12:09:45.640Z,22.70
2018-05-02T12:12:13.096Z,22.70
2018-05-02T12:14:40.541Z,21.80
2018-05-02T12:17:08.006Z,21.40
2018-05-02T12:19:35.474Z,21.50
2018-05-02T12:22:02.932Z,21.70
2018-05-02T12:24:30.536Z,22.00
2018-05-02T12:26:58.052Z,22.10
2018-05-02T12:29:25.528Z,21.90
2018-05-02T12:31:52.964Z,21.70
2018-05-02T12:34:20.425Z,21.60
2018-05-02T12:36:47.884Z,21.60
2018-05-02T12:39:16.120Z,22.50
2018-05-02T12:41:43.588Z,22.50
2018-05-02T12:44:11.067Z,23.40
2018-05-02T12:46:38.542Z,22.90
2018-05-02T12:49:05.985Z,22.40
2018-05-02T12:51:33.502Z,22.10
2018-05-02T12:54:00.980Z,21.70
2018-05-02T12:56:29.296Z,21.60
2018-05-02T12:58:56.764Z,21.60
2018-05-02T13:01:24.268Z,21.50
2018-05-02T13:03:51.741Z,21.40
2018-05-02T13:06:19.276Z,21.10
2018-05-02T13:08:46.743Z,21.20
2018-05-02T13:11:14.956Z,21.50
2018-05-02T13:13:42.405Z,21.50
2018-05-02T13:16:09.865Z,21.70
2018-05-02T13:18:37.317Z,21.40
2018-05-02T13:21:05.627Z,20.90
2018-05-02T13:23:33.000Z,20.90
2018-05-02T13:26:00.448Z,20.70
2018-05-02T13:28:28.707Z,20.40
2018-05-02T13:30:56.231Z,20.40
2018-05-02T13:33:23.769Z,20.50
2018-05-02T13:35:51.177Z,20.50
2018-05-02T13:38:18.656Z,20.60
2018-05-02T13:40:46.141Z,20.50
2018-05-02T13:43:13.589Z,20.60
2018-05-02T13:45:41.080Z,20.80
2018-05-02T13:48:08.534Z,21.00
2018-05-02T13:50:36.021Z,21.00
2018-05-02T13:53:03.561Z,20.80
2018-05-02T13:55:31.287Z,20.30
2018-05-02T13:57:58.720Z,20.10
2018-05-02T14:00:26.169Z,20.30
2018-05-02T14:02:53.649Z,20.20
2018-05-02T14:05:21.140Z,20.30
2018-05-02T14:07:48.599Z,20.30
2018-05-02T14:10:16.083Z,20.00
2018-05-02T14:12:43.548Z,20.10
2018-05-02T14:15:11.036Z,20.20
2018-05-02T14:17:38.499Z,20.30
2018-05-02T14:20:06.073Z,20.20
2018-05-02T14:22:33.548Z,20.20
2018-05-02T14:25:01.017Z,20.10
2018-05-02T14:27:28.484Z,20.10
2018-05-02T14:29:55.961Z,20.00
2018-05-02T14:32:23.412Z,19.80
2018-05-02T14:34:50.892Z,19.80
2018-05-02T14:37:18.350Z,20.10
2018-05-02T14:39:45.796Z,20.20
2018-05-02T14:42:13.264Z,19.70
2018-05-02T14:44:40.716Z,19.70
2018-05-02T14:47:08.963Z,19.50
2018-05-02T14:49:36.412Z,19.50
2018-05-02T14:52:03.960Z,19.40
2018-05-02T14:54:31.486Z,19.10
2018-05-02T14:56:59.625Z,18.80
2018-05-02T14:59:27.146Z,18.80
2018-05-02T15:01:54.627Z,18.90
2018-05-02T15:04:22.105Z,18.80
2018-05-02T15:06:50.368Z,18.90
2018-05-02T15:09:17.920Z,18.80
2018-05-02T15:11:45.388Z,18.90
2018-05-02T15:14:12.869Z,18.90
2018-05-02T15:16:40.325Z,18.70
2018-05-02T15:19:07.772Z,18.80
2018-05-02T15:21:35.291Z,18.80
2018-05-02T15:24:02.737Z,18.70
2018-05-02T15:26:30.225Z,18.70
2018-05-02T15:28:57.749Z,18.80
2018-05-02T15:31:25.235Z,18.70
2018-05-02T15:33:52.703Z,18.50
2018-05-02T15:36:20.188Z,18.50
2018-05-02T15:38:47.648Z,18.60
2018-05-02T15:41:15.097Z,18.60
2018-05-02T15:43:42.569Z,18.60
2018-05-02T15:46:10.783Z,18.50
2018-05-02T15:48:38.229Z,18.50
2018-05-02T15:51:05.688Z,18.40
2018-05-02T15:53:33.907Z,18.30
2018-05-02T15:56:01.391Z,18.20
2018-05-02T15:58:28.870Z,18.30
2018-05-02T16:00:58.021Z,18.30
2018-05-02T16:03:26.265Z,18.20
2018-05-02T16:05:53.726Z,18.20
2018-05-02T16:08:21.206Z,18.20
2018-05-02T16:10:48.649Z,18.20
2018-05-02T16:13:16.112Z,18.30
2018-05-02T16:15:43.612Z,18.20
2018-05-02T16:18:11.061Z,18.20
2018-05-02T16:20:38.553Z,18.30
2018-05-02T16:23:06.018Z,18.30
2018-05-02T16:25:33.481Z,18.30
2018-05-02T16:28:00.929Z,18.10
2018-05-02T16:30:28.399Z,18.00
2018-05-02T16:32:55.868Z,18.00
2018-05-02T16:35:23.326Z,17.90
2018-05-02T16:37:51.558Z,17.80
2018-05-02T16:40:19.106Z,17.70
2018-05-02T16:42:46.844Z,17.70
2018-05-02T16:45:14.296Z,17.60
2018-05-02T16:47:41.744Z,17.50
2018-05-02T16:50:09.212Z,17.50
2018-05-02T16:52:36.656Z,17.50
2018-05-02T16:55:04.121Z,17.50
2018-05-02T16:57:33.060Z,17.60
2018-05-02T17:00:00.844Z,17.60
2018-05-02T17:02:28.310Z,17.60
2018-05-02T17:04:55.776Z,17.60
2018-05-02T17:07:23.241Z,17.50
2018-05-02T17:09:50.713Z,17.50
2018-05-02T17:12:18.173Z,17.40
2018-05-02T17:14:45.629Z,17.40
2018-05-02T17:17:13.088Z,17.30
2018-05-02T17:19:40.544Z,17.20
2018-05-02T17:22:08.950Z,17.10
2018-05-02T17:24:36.303Z,17.10
2018-05-02T17:27:04.552Z,17.00
2018-05-02T17:29:32.000Z,17.00
2018-05-02T17:31:59.669Z,17.00
2018-05-02T19:01:34.349Z,15.30
2018-05-02T19:04:01.907Z,15.20
2018-05-02T19:06:29.408Z,15.10
2018-05-02T19:08:56.886Z,14.90
2018-05-02T19:11:25.614Z,14.90
2018-05-02T19:14:01.608Z,14.80
2018-05-02T19:16:29.831Z,14.70
2018-05-02T19:19:03.017Z,14.70
2018-05-02T19:21:30.484Z,14.60
2018-05-02T19:23:58.024Z,14.50
2018-05-02T19:26:31.040Z,14.50
2018-05-02T19:28:58.495Z,14.40
2018-05-02T19:31:32.323Z,14.40
2018-05-02T19:34:00.548Z,14.40
2018-05-02T19:36:28.025Z,14.40
2018-05-02T19:38:55.523Z,14.30
2018-05-02T19:41:28.704Z,14.30
2018-05-02T19:44:10.816Z,14.30
2018-05-02T19:46:39.024Z,14.20
2018-05-02T19:49:06.561Z,14.20
2018-05-02T19:51:40.365Z,14.10
2018-05-02T19:54:08.670Z,14.10
2018-05-02T19:56:36.109Z,14.00
2018-05-02T19:59:03.715Z,14.00
2018-05-02T20:01:36.913Z,14.00
2018-05-02T20:04:05.229Z,13.90
2018-05-02T20:06:32.783Z,13.90
2018-05-02T20:09:06.604Z,13.70
2018-05-02T20:11:39.815Z,13.80
2018-05-02T20:14:07.273Z,13.70
2018-05-02T20:16:34.731Z,13.60
2018-05-02T20:19:03.049Z,13.50
2018-05-02T20:21:30.513Z,13.50
2018-05-02T20:23:57.964Z,13.50
2018-05-02T20:26:26.274Z,13.30
2018-05-02T20:28:53.713Z,13.30
2018-05-02T20:31:21.989Z,13.20
2018-05-02T20:33:49.452Z,13.20
2018-05-02T20:36:16.909Z,13.10
2018-05-02T20:38:44.356Z,13.20
2018-05-02T20:41:11.816Z,13.10
2018-05-02T20:43:39.312Z,13.10
2018-05-02T20:46:06.776Z,13.10
2018-05-02T20:48:34.240Z,13.10
2018-05-02T20:51:01.730Z,13.10
2018-05-02T20:53:29.172Z,13.10
2018-05-02T20:55:56.640Z,13.10
2018-05-02T20:58:24.122Z,13.20
2018-05-02T21:00:51.638Z,13.20
2018-05-02T21:03:19.092Z,13.10
2018-05-02T21:05:46.553Z,13.20
2018-05-02T21:08:14.020Z,13.20
2018-05-02T21:10:41.464Z,13.20
2018-05-02T21:13:08.935Z,13.10
2018-05-02T21:15:36.380Z,13.20
2018-05-02T21:18:03.839Z,13.10
2018-05-02T21:20:33.315Z,13.10
2018-05-02T21:23:00.788Z,13.10
2018-05-02T21:25:28.241Z,13.10
2018-05-02T21:27:55.732Z,13.10
2018-05-02T21:30:23.213Z,13.00
2018-05-02T21:32:50.742Z,13.00
2018-05-02T21:35:18.297Z,12.90
2018-05-02T21:37:46.515Z,12.70
2018-05-02T21:40:13.992Z,12.70
2018-05-02T21:42:41.465Z,12.70
2018-05-02T21:45:08.928Z,12.60
2018-05-02T21:47:36.376Z,12.50
2018-05-02T21:50:03.837Z,12.50
2018-05-02T21:52:31.340Z,12.40
2018-05-02T21:54:58.796Z,12.30
2018-05-02T21:57:26.272Z,12.20
2018-05-02T21:59:53.810Z,12.20
2018-05-02T22:02:21.294Z,12.20
2018-05-02T22:04:48.759Z,12.10
2018-05-02T22:07:16.284Z,12.00
2018-05-02T22:09:43.745Z,11.90
2018-05-02T22:12:11.189Z,11.90
2018-05-02T22:14:38.976Z,11.90
2018-05-02T22:17:06.448Z,11.90
2018-05-02T22:19:33.932Z,11.80
2018-05-02T22:22:01.800Z,11.70
2018-05-02T22:24:30.253Z,11.70
2018-05-02T22:26:58.469Z,11.70
2018-05-02T22:29:25.939Z,11.60
2018-05-02T22:31:53.424Z,11.60
2018-05-02T22:34:20.880Z,11.60
2018-05-02T22:36:48.422Z,11.50
2018-05-02T22:39:16.752Z,11.40
2018-05-02T22:41:44.208Z,11.40
2018-05-02T22:44:11.656Z,11.40
2018-05-02T22:46:39.133Z,11.40
2018-05-02T22:49:06.584Z,11.40
2018-05-02T22:51:34.099Z,11.40
2018-05-02T22:54:01.553Z,11.30
2018-05-02T22:56:29.028Z,11.30
2018-05-02T22:58:56.507Z,11.30
2018-05-02T23:01:23.953Z,11.20
2018-05-02T23:03:51.462Z,11.20
2018-05-02T23:06:18.917Z,11.10
2018-05-02T23:08:46.488Z,11.10
2018-05-02T23:11:13.940Z,11.10
2018-05-02T23:13:41.397Z,11.00
2018-05-02T23:16:08.902Z,11.00
2018-05-02T23:18:36.356Z,11.00
2018-05-02T23:21:03.840Z,10.90
2018-05-02T23:23:31.308Z,10.90
2018-05-02T23:25:58.780Z,10.90
2018-05-02T23:28:26.255Z,10.80
2018-05-02T23:30:53.732Z,10.80
2018-05-02T23:33:21.310Z,10.80
2018-05-02T23:35:49.596Z,10.70
2018-05-02T23:38:17.044Z,10.60
2018-05-02T23:40:44.505Z,10.60
2018-05-02T23:43:12.053Z,10.60
2018-05-02T23:45:40.292Z,10.60
2018-05-02T23:48:07.736Z,10.50
2018-05-02T23:50:35.199Z,10.50
2018-05-02T23:53:02.753Z,10.50
2018-05-02T23:55:30.200Z,10.50
2018-05-02T23:57:58.416Z,10.40
